sensor_id;sensor_type;location;lat;lon;timestamp;P1;durP1;ratioP1;P2;durP2;ratioP2
67272;SDS011;54190;49.770;9.250;2024-02-21T00:00:36;10.00;;;2.87;;
67272;SDS011;54190;49.770;9.250;2024-02-21T00:03:03;8.60;;;3.10;;
67272;SDS011;54190;49.770;9.250;2024-02-21T00:05:29;6.80;;;3.23;;
67272;SDS011;54190;49.770;9.250;2024-02-21T00:07:55;5.40;;;2.90;;
67272;SDS011;54190;49.770;9.250;2024-02-21T00:10:22;5.40;;;2.53;;
67272;SDS011;54190;49.770;9.250;2024-02-21T00:12:48;5.00;;;3.27;;
67272;SDS011;54190;49.770;9.250;2024-02-21T00:15:14;7.73;;;3.10;;
67272;SDS011;54190;49.770;9.250;2024-02-21T00:17:40;10.23;;;3.07;;
67272;SDS011;54190;49.770;9.250;2024-02-21T00:20:06;12.63;;;4.00;;
67272;SDS011;54190;49.770;9.250;2024-02-21T00:22:32;5.87;;;3.43;;
67272;SDS011;54190;49.770;9.250;2024-02-21T00:24:58;5.97;;;3.00;;
67272;SDS011;54190;49.770;9.250;2024-02-21T00:27:24;13.17;;;3.33;;
67272;SDS011;54190;49.770;9.250;2024-02-21T00:29:50;6.73;;;2.90;;
67272;SDS011;54190;49.770;9.250;2024-02-21T00:32:16;8.80;;;3.10;;
67272;SDS011;54190;49.770;9.250;2024-02-21T00:34:41;7.70;;;3.10;;
67272;SDS011;54190;49.770;9.250;2024-02-21T00:37:07;8.50;;;3.10;;
67272;SDS011;54190;49.770;9.250;2024-02-21T00:39:33;6.67;;;3.77;;
67272;SDS011;54190;49.770;9.250;2024-02-21T00:41:58;6.30;;;3.17;;
67272;SDS011;54190;49.770;9.250;2024-02-21T00:44:24;8.60;;;3.80;;
67272;SDS011;54190;49.770;9.250;2024-02-21T00:46:50;4.80;;;3.00;;
67272;SDS011;54190;49.770;9.250;2024-02-21T00:49:15;6.70;;;3.13;;
67272;SDS011;54190;49.770;9.250;2024-02-21T00:51:41;6.50;;;3.50;;
67272;SDS011;54190;49.770;9.250;2024-02-21T00:54:07;6.30;;;3.33;;
67272;SDS011;54190;49.770;9.250;2024-02-21T00:56:32;7.43;;;3.60;;
67272;SDS011;54190;49.770;9.250;2024-02-21T00:58:58;7.87;;;3.70;;
67272;SDS011;54190;49.770;9.250;2024-02-21T01:01:24;5.73;;;3.10;;
67272;SDS011;54190;49.770;9.250;2024-02-21T01:03:50;9.87;;;3.53;;
67272;SDS011;54190;49.770;9.250;2024-02-21T01:06:18;7.03;;;3.33;;
67272;SDS011;54190;49.770;9.250;2024-02-21T01:08:45;5.90;;;3.50;;
67272;SDS011;54190;49.770;9.250;2024-02-21T01:11:12;8.30;;;3.13;;
67272;SDS011;54190;49.770;9.250;2024-02-21T01:13:38;6.37;;;3.30;;
67272;SDS011;54190;49.770;9.250;2024-02-21T01:16:03;6.10;;;3.37;;
67272;SDS011;54190;49.770;9.250;2024-02-21T01:18:29;8.23;;;3.30;;
67272;SDS011;54190;49.770;9.250;2024-02-21T01:20:55;6.93;;;3.50;;
67272;SDS011;54190;49.770;9.250;2024-02-21T01:23:20;5.77;;;3.40;;
67272;SDS011;54190;49.770;9.250;2024-02-21T01:25:46;10.63;;;3.33;;
67272;SDS011;54190;49.770;9.250;2024-02-21T01:28:11;5.87;;;2.90;;
67272;SDS011;54190;49.770;9.250;2024-02-21T01:30:37;5.90;;;3.40;;
67272;SDS011;54190;49.770;9.250;2024-02-21T01:33:03;6.30;;;3.20;;
67272;SDS011;54190;49.770;9.250;2024-02-21T01:35:29;7.30;;;3.47;;
67272;SDS011;54190;49.770;9.250;2024-02-21T01:37:54;5.30;;;2.77;;
67272;SDS011;54190;49.770;9.250;2024-02-21T01:40:20;7.03;;;3.47;;
67272;SDS011;54190;49.770;9.250;2024-02-21T01:42:45;10.03;;;2.83;;
67272;SDS011;54190;49.770;9.250;2024-02-21T01:45:13;6.83;;;3.10;;
67272;SDS011;54190;49.770;9.250;2024-02-21T01:47:38;6.83;;;3.03;;
67272;SDS011;54190;49.770;9.250;2024-02-21T02:01:34;7.67;;;3.23;;
67272;SDS011;54190;49.770;9.250;2024-02-21T02:04:00;7.33;;;3.43;;
67272;SDS011;54190;49.770;9.250;2024-02-21T02:06:26;6.47;;;3.37;;
67272;SDS011;54190;49.770;9.250;2024-02-21T02:08:53;6.60;;;2.90;;
67272;SDS011;54190;49.770;9.250;2024-02-21T02:11:19;4.77;;;2.50;;
67272;SDS011;54190;49.770;9.250;2024-02-21T02:13:45;7.40;;;3.00;;
67272;SDS011;54190;49.770;9.250;2024-02-21T02:16:11;5.73;;;2.97;;
67272;SDS011;54190;49.770;9.250;2024-02-21T02:18:36;8.13;;;3.53;;
67272;SDS011;54190;49.770;9.250;2024-02-21T02:21:03;7.23;;;2.90;;
67272;SDS011;54190;49.770;9.250;2024-02-21T02:23:32;6.27;;;2.93;;
67272;SDS011;54190;49.770;9.250;2024-02-21T02:25:59;4.80;;;2.80;;
67272;SDS011;54190;49.770;9.250;2024-02-21T02:28:26;7.13;;;2.70;;
67272;SDS011;54190;49.770;9.250;2024-02-21T02:30:52;6.53;;;2.80;;
67272;SDS011;54190;49.770;9.250;2024-02-21T02:33:18;9.10;;;3.40;;
67272;SDS011;54190;49.770;9.250;2024-02-21T02:35:43;9.47;;;3.63;;
67272;SDS011;54190;49.770;9.250;2024-02-21T02:38:09;6.63;;;2.50;;
67272;SDS011;54190;49.770;9.250;2024-02-21T02:40:37;8.60;;;3.20;;
67272;SDS011;54190;49.770;9.250;2024-02-21T02:43:04;5.93;;;3.23;;
67272;SDS011;54190;49.770;9.250;2024-02-21T02:45:30;6.10;;;3.50;;
67272;SDS011;54190;49.770;9.250;2024-02-21T02:47:56;6.30;;;3.00;;
67272;SDS011;54190;49.770;9.250;2024-02-21T02:50:25;6.07;;;3.20;;
67272;SDS011;54190;49.770;9.250;2024-02-21T02:52:51;6.60;;;3.40;;
67272;SDS011;54190;49.770;9.250;2024-02-21T02:55:17;8.03;;;2.50;;
67272;SDS011;54190;49.770;9.250;2024-02-21T02:57:43;3.50;;;2.13;;
67272;SDS011;54190;49.770;9.250;2024-02-21T03:00:13;7.40;;;3.03;;
67272;SDS011;54190;49.770;9.250;2024-02-21T03:02:40;9.63;;;3.63;;
67272;SDS011;54190;49.770;9.250;2024-02-21T03:07:43;6.80;;;3.07;;
67272;SDS011;54190;49.770;9.250;2024-02-21T03:10:09;6.93;;;2.60;;
67272;SDS011;54190;49.770;9.250;2024-02-21T03:12:36;6.93;;;3.17;;
67272;SDS011;54190;49.770;9.250;2024-02-21T03:15:02;6.60;;;2.80;;
67272;SDS011;54190;49.770;9.250;2024-02-21T03:17:27;9.73;;;2.73;;
67272;SDS011;54190;49.770;9.250;2024-02-21T03:19:53;7.07;;;3.70;;
67272;SDS011;54190;49.770;9.250;2024-02-21T03:22:20;8.80;;;3.10;;
67272;SDS011;54190;49.770;9.250;2024-02-21T03:24:46;7.23;;;3.20;;
67272;SDS011;54190;49.770;9.250;2024-02-21T03:27:12;7.30;;;3.27;;
67272;SDS011;54190;49.770;9.250;2024-02-21T03:29:38;6.57;;;3.00;;
67272;SDS011;54190;49.770;9.250;2024-02-21T03:32:04;6.10;;;2.47;;
67272;SDS011;54190;49.770;9.250;2024-02-21T03:34:29;5.80;;;3.03;;
67272;SDS011;54190;49.770;9.250;2024-02-21T03:36:55;5.50;;;3.00;;
67272;SDS011;54190;49.770;9.250;2024-02-21T03:39:21;9.00;;;3.03;;
67272;SDS011;54190;49.770;9.250;2024-02-21T03:41:46;9.03;;;3.03;;
67272;SDS011;54190;49.770;9.250;2024-02-21T03:44:12;8.10;;;3.30;;
67272;SDS011;54190;49.770;9.250;2024-02-21T03:46:38;5.93;;;2.50;;
67272;SDS011;54190;49.770;9.250;2024-02-21T03:49:03;7.30;;;3.00;;
67272;SDS011;54190;49.770;9.250;2024-02-21T03:51:29;6.63;;;2.80;;
67272;SDS011;54190;49.770;9.250;2024-02-21T03:53:55;4.37;;;2.60;;
67272;SDS011;54190;49.770;9.250;2024-02-21T03:56:20;5.90;;;3.63;;
67272;SDS011;54190;49.770;9.250;2024-02-21T03:58:46;6.00;;;2.80;;
67272;SDS011;54190;49.770;9.250;2024-02-21T04:01:12;5.90;;;3.03;;
67272;SDS011;54190;49.770;9.250;2024-02-21T04:03:40;5.37;;;2.70;;
67272;SDS011;54190;49.770;9.250;2024-02-21T04:06:05;6.30;;;2.83;;
67272;SDS011;54190;49.770;9.250;2024-02-21T04:08:31;5.80;;;2.97;;
67272;SDS011;54190;49.770;9.250;2024-02-21T04:10:56;6.80;;;2.80;;
67272;SDS011;54190;49.770;9.250;2024-02-21T04:13:22;4.57;;;2.77;;
67272;SDS011;54190;49.770;9.250;2024-02-21T04:15:48;8.80;;;2.97;;
67272;SDS011;54190;49.770;9.250;2024-02-21T04:18:13;7.53;;;3.40;;
67272;SDS011;54190;49.770;9.250;2024-02-21T04:20:40;5.23;;;2.50;;
67272;SDS011;54190;49.770;9.250;2024-02-21T04:23:05;5.07;;;2.73;;
67272;SDS011;54190;49.770;9.250;2024-02-21T04:25:31;5.27;;;2.50;;
67272;SDS011;54190;49.770;9.250;2024-02-21T04:27:57;3.50;;;2.33;;
67272;SDS011;54190;49.770;9.250;2024-02-21T04:30:22;7.87;;;2.70;;
67272;SDS011;54190;49.770;9.250;2024-02-21T04:32:48;4.20;;;2.43;;
67272;SDS011;54190;49.770;9.250;2024-02-21T04:35:13;7.20;;;3.40;;
67272;SDS011;54190;49.770;9.250;2024-02-21T04:37:39;5.70;;;2.70;;
67272;SDS011;54190;49.770;9.250;2024-02-21T04:40:05;6.67;;;3.40;;
67272;SDS011;54190;49.770;9.250;2024-02-21T04:42:31;6.97;;;3.07;;
67272;SDS011;54190;49.770;9.250;2024-02-21T04:44:57;8.80;;;3.57;;
67272;SDS011;54190;49.770;9.250;2024-02-21T04:47:22;7.87;;;3.80;;
67272;SDS011;54190;49.770;9.250;2024-02-21T04:49:51;7.03;;;3.40;;
67272;SDS011;54190;49.770;9.250;2024-02-21T04:52:17;4.20;;;2.77;;
67272;SDS011;54190;49.770;9.250;2024-02-21T04:54:43;10.93;;;3.07;;
67272;SDS011;54190;49.770;9.250;2024-02-21T04:57:08;7.20;;;2.83;;
67272;SDS011;54190;49.770;9.250;2024-02-21T04:59:35;7.30;;;2.67;;
67272;SDS011;54190;49.770;9.250;2024-02-21T05:02:01;4.80;;;2.87;;
67272;SDS011;54190;49.770;9.250;2024-02-21T05:04:27;9.23;;;3.10;;
67272;SDS011;54190;49.770;9.250;2024-02-21T05:06:53;7.53;;;2.90;;
67272;SDS011;54190;49.770;9.250;2024-02-21T05:09:19;7.47;;;3.93;;
67272;SDS011;54190;49.770;9.250;2024-02-21T05:11:45;9.10;;;4.17;;
67272;SDS011;54190;49.770;9.250;2024-02-21T05:14:11;4.50;;;2.53;;
67272;SDS011;54190;49.770;9.250;2024-02-21T05:16:38;7.43;;;3.40;;
67272;SDS011;54190;49.770;9.250;2024-02-21T05:19:04;5.90;;;3.13;;
67272;SDS011;54190;49.770;9.250;2024-02-21T05:21:30;6.50;;;3.03;;
67272;SDS011;54190;49.770;9.250;2024-02-21T05:23:55;4.73;;;2.90;;
67272;SDS011;54190;49.770;9.250;2024-02-21T05:26:21;7.30;;;3.10;;
67272;SDS011;54190;49.770;9.250;2024-02-21T05:28:50;6.43;;;2.80;;
67272;SDS011;54190;49.770;9.250;2024-02-21T05:31:19;5.10;;;3.00;;
67272;SDS011;54190;49.770;9.250;2024-02-21T05:33:45;7.30;;;3.30;;
67272;SDS011;54190;49.770;9.250;2024-02-21T05:36:12;10.63;;;3.67;;
67272;SDS011;54190;49.770;9.250;2024-02-21T05:38:38;5.60;;;3.10;;
67272;SDS011;54190;49.770;9.250;2024-02-21T05:41:04;6.40;;;3.30;;
67272;SDS011;54190;49.770;9.250;2024-02-21T05:43:30;7.40;;;3.37;;
67272;SDS011;54190;49.770;9.250;2024-02-21T05:45:56;7.33;;;2.90;;
67272;SDS011;54190;49.770;9.250;2024-02-21T05:48:22;8.90;;;3.47;;
67272;SDS011;54190;49.770;9.250;2024-02-21T05:50:48;6.50;;;2.80;;
67272;SDS011;54190;49.770;9.250;2024-02-21T05:53:14;5.07;;;3.17;;
67272;SDS011;54190;49.770;9.250;2024-02-21T05:55:40;10.13;;;3.53;;
67272;SDS011;54190;49.770;9.250;2024-02-21T05:58:06;6.90;;;3.17;;
67272;SDS011;54190;49.770;9.250;2024-02-21T06:00:32;5.50;;;3.33;;
67272;SDS011;54190;49.770;9.250;2024-02-21T06:02:58;5.70;;;3.20;;
67272;SDS011;54190;49.770;9.250;2024-02-21T06:05:24;9.30;;;3.63;;
67272;SDS011;54190;49.770;9.250;2024-02-21T06:07:50;6.97;;;3.60;;
67272;SDS011;54190;49.770;9.250;2024-02-21T06:10:15;10.50;;;4.53;;
67272;SDS011;54190;49.770;9.250;2024-02-21T06:12:41;7.00;;;4.27;;
67272;SDS011;54190;49.770;9.250;2024-02-21T06:15:07;5.23;;;3.37;;
67272;SDS011;54190;49.770;9.250;2024-02-21T06:17:33;7.27;;;3.40;;
67272;SDS011;54190;49.770;9.250;2024-02-21T06:19:59;4.70;;;2.60;;
67272;SDS011;54190;49.770;9.250;2024-02-21T06:22:24;10.60;;;3.30;;
67272;SDS011;54190;49.770;9.250;2024-02-21T06:24:50;5.33;;;2.70;;
67272;SDS011;54190;49.770;9.250;2024-02-21T06:27:15;4.53;;;2.40;;
67272;SDS011;54190;49.770;9.250;2024-02-21T06:29:42;6.57;;;2.40;;
67272;SDS011;54190;49.770;9.250;2024-02-21T06:32:08;5.37;;;2.53;;
67272;SDS011;54190;49.770;9.250;2024-02-21T06:34:33;6.93;;;3.03;;
67272;SDS011;54190;49.770;9.250;2024-02-21T06:36:59;7.90;;;2.50;;
67272;SDS011;54190;49.770;9.250;2024-02-21T06:39:25;6.70;;;3.00;;
67272;SDS011;54190;49.770;9.250;2024-02-21T06:41:50;13.43;;;3.20;;
67272;SDS011;54190;49.770;9.250;2024-02-21T06:44:16;5.80;;;2.73;;
67272;SDS011;54190;49.770;9.250;2024-02-21T06:46:42;3.97;;;2.27;;
67272;SDS011;54190;49.770;9.250;2024-02-21T06:49:08;4.87;;;2.63;;
67272;SDS011;54190;49.770;9.250;2024-02-21T06:51:34;4.07;;;2.47;;
67272;SDS011;54190;49.770;9.250;2024-02-21T06:54:00;5.17;;;2.80;;
67272;SDS011;54190;49.770;9.250;2024-02-21T06:56:25;4.80;;;2.83;;
67272;SDS011;54190;49.770;9.250;2024-02-21T06:58:54;4.03;;;2.47;;
67272;SDS011;54190;49.770;9.250;2024-02-21T07:01:21;7.13;;;2.63;;
67272;SDS011;54190;49.770;9.250;2024-02-21T07:03:46;11.10;;;3.40;;
67272;SDS011;54190;49.770;9.250;2024-02-21T07:06:12;7.10;;;4.40;;
67272;SDS011;54190;49.770;9.250;2024-02-21T07:08:38;5.80;;;3.60;;
67272;SDS011;54190;49.770;9.250;2024-02-21T07:11:04;9.00;;;4.67;;
67272;SDS011;54190;49.770;9.250;2024-02-21T07:13:30;6.93;;;4.20;;
67272;SDS011;54190;49.770;9.250;2024-02-21T07:15:56;7.70;;;4.17;;
67272;SDS011;54190;49.770;9.250;2024-02-21T07:18:21;12.60;;;5.00;;
67272;SDS011;54190;49.770;9.250;2024-02-21T07:20:47;12.57;;;7.03;;
67272;SDS011;54190;49.770;9.250;2024-02-21T07:23:12;11.67;;;6.10;;
67272;SDS011;54190;49.770;9.250;2024-02-21T07:25:38;9.53;;;5.33;;
67272;SDS011;54190;49.770;9.250;2024-02-21T07:28:05;9.67;;;5.50;;
67272;SDS011;54190;49.770;9.250;2024-02-21T07:30:31;9.37;;;4.27;;
67272;SDS011;54190;49.770;9.250;2024-02-21T07:32:57;9.57;;;3.67;;
67272;SDS011;54190;49.770;9.250;2024-02-21T07:35:22;4.70;;;2.80;;
67272;SDS011;54190;49.770;9.250;2024-02-21T07:37:48;4.80;;;2.47;;
67272;SDS011;54190;49.770;9.250;2024-02-21T07:40:14;5.40;;;2.80;;
67272;SDS011;54190;49.770;9.250;2024-02-21T07:42:40;8.37;;;2.80;;
67272;SDS011;54190;49.770;9.250;2024-02-21T07:45:07;7.30;;;3.70;;
67272;SDS011;54190;49.770;9.250;2024-02-21T07:47:33;6.17;;;2.80;;
67272;SDS011;54190;49.770;9.250;2024-02-21T07:49:59;5.37;;;3.27;;
67272;SDS011;54190;49.770;9.250;2024-02-21T07:52:25;8.93;;;3.80;;
67272;SDS011;54190;49.770;9.250;2024-02-21T07:54:51;7.97;;;4.20;;
67272;SDS011;54190;49.770;9.250;2024-02-21T07:57:16;4.30;;;2.73;;
67272;SDS011;54190;49.770;9.250;2024-02-21T07:59:42;8.70;;;2.80;;
67272;SDS011;54190;49.770;9.250;2024-02-21T08:02:08;5.83;;;3.00;;
67272;SDS011;54190;49.770;9.250;2024-02-21T08:04:34;5.10;;;2.53;;
67272;SDS011;54190;49.770;9.250;2024-02-21T08:06:59;6.07;;;2.57;;
67272;SDS011;54190;49.770;9.250;2024-02-21T08:09:29;6.03;;;3.00;;
67272;SDS011;54190;49.770;9.250;2024-02-21T08:11:55;5.73;;;2.47;;
67272;SDS011;54190;49.770;9.250;2024-02-21T08:14:21;4.40;;;2.47;;
67272;SDS011;54190;49.770;9.250;2024-02-21T08:16:47;5.57;;;2.90;;
67272;SDS011;54190;49.770;9.250;2024-02-21T08:19:13;5.37;;;2.73;;
67272;SDS011;54190;49.770;9.250;2024-02-21T08:21:38;10.07;;;3.33;;
67272;SDS011;54190;49.770;9.250;2024-02-21T08:24:04;9.13;;;3.63;;
67272;SDS011;54190;49.770;9.250;2024-02-21T08:26:30;10.13;;;5.43;;
67272;SDS011;54190;49.770;9.250;2024-02-21T08:28:59;4.20;;;2.90;;
67272;SDS011;54190;49.770;9.250;2024-02-21T08:31:25;5.63;;;2.53;;
67272;SDS011;54190;49.770;9.250;2024-02-21T08:33:58;5.40;;;2.73;;
67272;SDS011;54190;49.770;9.250;2024-02-21T08:36:33;6.27;;;2.90;;
67272;SDS011;54190;49.770;9.250;2024-02-21T08:38:59;5.00;;;2.50;;
67272;SDS011;54190;49.770;9.250;2024-02-21T08:41:25;4.70;;;2.47;;
67272;SDS011;54190;49.770;9.250;2024-02-21T08:43:51;6.17;;;2.60;;
67272;SDS011;54190;49.770;9.250;2024-02-21T08:46:21;8.40;;;3.63;;
67272;SDS011;54190;49.770;9.250;2024-02-21T08:48:51;7.80;;;2.80;;
67272;SDS011;54190;49.770;9.250;2024-02-21T08:51:17;6.17;;;2.43;;
67272;SDS011;54190;49.770;9.250;2024-02-21T08:53:44;5.23;;;2.00;;
67272;SDS011;54190;49.770;9.250;2024-02-21T08:56:10;11.20;;;2.77;;
67272;SDS011;54190;49.770;9.250;2024-02-21T08:58:36;7.77;;;2.13;;
67272;SDS011;54190;49.770;9.250;2024-02-21T09:01:05;9.33;;;3.53;;
67272;SDS011;54190;49.770;9.250;2024-02-21T09:03:32;6.73;;;2.80;;
67272;SDS011;54190;49.770;9.250;2024-02-21T09:05:58;7.77;;;2.73;;
67272;SDS011;54190;49.770;9.250;2024-02-21T09:08:25;4.70;;;2.50;;
67272;SDS011;54190;49.770;9.250;2024-02-21T09:10:51;3.37;;;2.20;;
67272;SDS011;54190;49.770;9.250;2024-02-21T09:13:17;6.00;;;2.77;;
67272;SDS011;54190;49.770;9.250;2024-02-21T09:15:42;8.03;;;4.40;;
67272;SDS011;54190;49.770;9.250;2024-02-21T09:18:08;7.93;;;3.90;;
67272;SDS011;54190;49.770;9.250;2024-02-21T09:20:34;7.13;;;3.47;;
67272;SDS011;54190;49.770;9.250;2024-02-21T09:22:59;6.20;;;3.27;;
67272;SDS011;54190;49.770;9.250;2024-02-21T09:25:25;4.57;;;2.50;;
67272;SDS011;54190;49.770;9.250;2024-02-21T09:27:51;6.87;;;2.80;;
67272;SDS011;54190;49.770;9.250;2024-02-21T09:30:18;6.03;;;2.60;;
67272;SDS011;54190;49.770;9.250;2024-02-21T09:32:44;5.27;;;2.70;;
67272;SDS011;54190;49.770;9.250;2024-02-21T09:35:10;4.50;;;2.60;;
67272;SDS011;54190;49.770;9.250;2024-02-21T09:37:37;12.67;;;2.23;;
67272;SDS011;54190;49.770;9.250;2024-02-21T09:40:04;3.60;;;2.20;;
67272;SDS011;54190;49.770;9.250;2024-02-21T09:45:06;7.40;;;2.47;;
67272;SDS011;54190;49.770;9.250;2024-02-21T09:47:35;6.47;;;2.60;;
67272;SDS011;54190;49.770;9.250;2024-02-21T09:50:15;7.83;;;2.17;;
67272;SDS011;54190;49.770;9.250;2024-02-21T09:52:42;8.60;;;2.83;;
67272;SDS011;54190;49.770;9.250;2024-02-21T09:55:09;4.37;;;2.10;;
67272;SDS011;54190;49.770;9.250;2024-02-21T09:57:37;3.07;;;1.90;;
67272;SDS011;54190;49.770;9.250;2024-02-21T10:00:04;7.73;;;2.50;;
67272;SDS011;54190;49.770;9.250;2024-02-21T10:02:38;6.37;;;2.40;;
67272;SDS011;54190;49.770;9.250;2024-02-21T10:05:04;5.53;;;2.10;;
67272;SDS011;54190;49.770;9.250;2024-02-21T10:07:33;5.80;;;2.00;;
67272;SDS011;54190;49.770;9.250;2024-02-21T10:10:05;4.23;;;2.13;;
67272;SDS011;54190;49.770;9.250;2024-02-21T10:12:31;7.03;;;2.47;;
67272;SDS011;54190;49.770;9.250;2024-02-21T10:15:00;6.60;;;1.70;;
67272;SDS011;54190;49.770;9.250;2024-02-21T10:17:27;10.07;;;2.73;;
67272;SDS011;54190;49.770;9.250;2024-02-21T10:19:53;8.30;;;3.70;;
67272;SDS011;54190;49.770;9.250;2024-02-21T10:22:18;6.27;;;3.33;;
67272;SDS011;54190;49.770;9.250;2024-02-21T10:24:46;8.93;;;3.23;;
67272;SDS011;54190;49.770;9.250;2024-02-21T10:27:12;5.77;;;2.60;;
67272;SDS011;54190;49.770;9.250;2024-02-21T10:29:38;6.10;;;1.80;;
67272;SDS011;54190;49.770;9.250;2024-02-21T10:32:05;5.70;;;2.43;;
67272;SDS011;54190;49.770;9.250;2024-02-21T10:34:31;6.40;;;2.63;;
67272;SDS011;54190;49.770;9.250;2024-02-21T10:37:03;3.57;;;2.10;;
67272;SDS011;54190;49.770;9.250;2024-02-21T10:39:33;2.90;;;1.77;;
67272;SDS011;54190;49.770;9.250;2024-02-21T10:42:00;5.07;;;1.73;;
67272;SDS011;54190;49.770;9.250;2024-02-21T10:44:31;3.93;;;2.27;;
67272;SDS011;54190;49.770;9.250;2024-02-21T10:46:58;4.00;;;2.17;;
67272;SDS011;54190;49.770;9.250;2024-02-21T10:49:25;4.50;;;1.90;;
67272;SDS011;54190;49.770;9.250;2024-02-21T10:52:01;6.90;;;2.00;;
67272;SDS011;54190;49.770;9.250;2024-02-21T10:57:15;5.93;;;1.83;;
67272;SDS011;54190;49.770;9.250;2024-02-21T10:59:41;3.37;;;1.97;;
67272;SDS011;54190;49.770;9.250;2024-02-21T11:02:09;6.53;;;1.97;;
67272;SDS011;54190;49.770;9.250;2024-02-21T11:04:35;4.43;;;1.80;;
67272;SDS011;54190;49.770;9.250;2024-02-21T11:07:05;5.23;;;1.90;;
67272;SDS011;54190;49.770;9.250;2024-02-21T11:09:31;4.23;;;2.17;;
67272;SDS011;54190;49.770;9.250;2024-02-21T11:11:58;4.17;;;1.63;;
67272;SDS011;54190;49.770;9.250;2024-02-21T11:14:26;8.30;;;1.93;;
67272;SDS011;54190;49.770;9.250;2024-02-21T11:16:52;3.70;;;1.50;;
67272;SDS011;54190;49.770;9.250;2024-02-21T11:21:43;3.63;;;1.70;;
67272;SDS011;54190;49.770;9.250;2024-02-21T11:24:09;5.57;;;2.07;;
67272;SDS011;54190;49.770;9.250;2024-02-21T11:26:36;4.40;;;2.10;;
67272;SDS011;54190;49.770;9.250;2024-02-21T11:29:03;4.70;;;1.67;;
67272;SDS011;54190;49.770;9.250;2024-02-21T11:31:40;4.07;;;1.70;;
67272;SDS011;54190;49.770;9.250;2024-02-21T11:34:10;5.20;;;1.73;;
67272;SDS011;54190;49.770;9.250;2024-02-21T11:36:39;5.43;;;1.80;;
67272;SDS011;54190;49.770;9.250;2024-02-21T11:39:12;3.93;;;2.00;;
67272;SDS011;54190;49.770;9.250;2024-02-21T11:41:38;3.50;;;1.80;;
67272;SDS011;54190;49.770;9.250;2024-02-21T11:44:03;4.00;;;2.07;;
67272;SDS011;54190;49.770;9.250;2024-02-21T11:46:29;3.50;;;2.03;;
67272;SDS011;54190;49.770;9.250;2024-02-21T11:48:55;5.87;;;3.60;;
67272;SDS011;54190;49.770;9.250;2024-02-21T11:51:21;5.00;;;2.00;;
67272;SDS011;54190;49.770;9.250;2024-02-21T11:53:50;2.23;;;1.23;;
67272;SDS011;54190;49.770;9.250;2024-02-21T11:56:19;6.60;;;1.70;;
67272;SDS011;54190;49.770;9.250;2024-02-21T11:58:46;4.10;;;1.83;;
67272;SDS011;54190;49.770;9.250;2024-02-21T12:01:14;4.77;;;1.80;;
67272;SDS011;54190;49.770;9.250;2024-02-21T12:03:40;3.40;;;1.73;;
67272;SDS011;54190;49.770;9.250;2024-02-21T12:06:11;3.40;;;1.60;;
67272;SDS011;54190;49.770;9.250;2024-02-21T12:08:43;2.93;;;1.50;;
67272;SDS011;54190;49.770;9.250;2024-02-21T12:11:15;5.00;;;1.60;;
67272;SDS011;54190;49.770;9.250;2024-02-21T12:13:58;2.73;;;1.70;;
67272;SDS011;54190;49.770;9.250;2024-02-21T12:16:29;3.27;;;1.97;;
67272;SDS011;54190;49.770;9.250;2024-02-21T12:18:56;4.20;;;1.67;;
67272;SDS011;54190;49.770;9.250;2024-02-21T12:21:40;4.87;;;1.93;;
67272;SDS011;54190;49.770;9.250;2024-02-21T12:24:15;4.70;;;1.77;;
67272;SDS011;54190;49.770;9.250;2024-02-21T12:26:43;3.87;;;1.50;;
67272;SDS011;54190;49.770;9.250;2024-02-21T12:29:08;5.33;;;1.50;;
67272;SDS011;54190;49.770;9.250;2024-02-21T12:31:37;3.00;;;1.47;;
67272;SDS011;54190;49.770;9.250;2024-02-21T12:34:03;4.37;;;2.13;;
67272;SDS011;54190;49.770;9.250;2024-02-21T12:36:30;3.30;;;1.83;;
67272;SDS011;54190;49.770;9.250;2024-02-21T12:38:57;4.90;;;1.67;;
67272;SDS011;54190;49.770;9.250;2024-02-21T12:41:22;8.83;;;1.80;;
67272;SDS011;54190;49.770;9.250;2024-02-21T12:43:50;7.23;;;2.17;;
67272;SDS011;54190;49.770;9.250;2024-02-21T12:46:16;3.60;;;1.70;;
67272;SDS011;54190;49.770;9.250;2024-02-21T12:48:42;4.70;;;1.60;;
67272;SDS011;54190;49.770;9.250;2024-02-21T12:51:07;6.97;;;2.20;;
67272;SDS011;54190;49.770;9.250;2024-02-21T12:53:33;3.17;;;1.60;;
67272;SDS011;54190;49.770;9.250;2024-02-21T12:55:59;2.77;;;1.63;;
67272;SDS011;54190;49.770;9.250;2024-02-21T12:58:25;5.07;;;1.97;;
67272;SDS011;54190;49.770;9.250;2024-02-21T13:00:50;3.70;;;2.10;;
67272;SDS011;54190;49.770;9.250;2024-02-21T13:03:16;6.60;;;1.70;;
67272;SDS011;54190;49.770;9.250;2024-02-21T13:05:42;4.10;;;1.70;;
67272;SDS011;54190;49.770;9.250;2024-02-21T13:08:10;2.50;;;1.40;;
67272;SDS011;54190;49.770;9.250;2024-02-21T13:10:37;2.73;;;1.70;;
67272;SDS011;54190;49.770;9.250;2024-02-21T13:13:03;5.20;;;2.30;;
67272;SDS011;54190;49.770;9.250;2024-02-21T13:15:29;6.33;;;1.70;;
67272;SDS011;54190;49.770;9.250;2024-02-21T13:17:57;2.43;;;1.50;;
67272;SDS011;54190;49.770;9.250;2024-02-21T13:20:24;3.83;;;1.70;;
67272;SDS011;54190;49.770;9.250;2024-02-21T13:22:50;3.20;;;1.80;;
67272;SDS011;54190;49.770;9.250;2024-02-21T13:25:16;2.77;;;1.70;;
67272;SDS011;54190;49.770;9.250;2024-02-21T13:27:45;3.77;;;1.60;;
67272;SDS011;54190;49.770;9.250;2024-02-21T13:30:11;4.80;;;1.90;;
67272;SDS011;54190;49.770;9.250;2024-02-21T13:32:38;4.83;;;1.67;;
67272;SDS011;54190;49.770;9.250;2024-02-21T13:35:04;3.47;;;1.70;;
67272;SDS011;54190;49.770;9.250;2024-02-21T13:37:30;4.90;;;1.90;;
67272;SDS011;54190;49.770;9.250;2024-02-21T13:39:56;3.53;;;1.93;;
67272;SDS011;54190;49.770;9.250;2024-02-21T13:42:22;3.73;;;2.03;;
67272;SDS011;54190;49.770;9.250;2024-02-21T13:44:48;6.53;;;1.67;;
67272;SDS011;54190;49.770;9.250;2024-02-21T13:47:14;3.90;;;1.90;;
67272;SDS011;54190;49.770;9.250;2024-02-21T13:49:40;3.70;;;1.80;;
67272;SDS011;54190;49.770;9.250;2024-02-21T13:52:06;2.93;;;1.70;;
67272;SDS011;54190;49.770;9.250;2024-02-21T13:54:32;6.07;;;2.53;;
67272;SDS011;54190;49.770;9.250;2024-02-21T13:56:58;5.70;;;2.17;;
67272;SDS011;54190;49.770;9.250;2024-02-21T13:59:23;5.50;;;2.77;;
67272;SDS011;54190;49.770;9.250;2024-02-21T14:01:49;5.00;;;1.90;;
67272;SDS011;54190;49.770;9.250;2024-02-21T14:04:14;6.57;;;3.10;;
67272;SDS011;54190;49.770;9.250;2024-02-21T14:06:40;12.07;;;6.10;;
67272;SDS011;54190;49.770;9.250;2024-02-21T14:09:09;15.50;;;8.50;;
67272;SDS011;54190;49.770;9.250;2024-02-21T14:11:35;16.03;;;6.93;;
67272;SDS011;54190;49.770;9.250;2024-02-21T14:14:02;20.87;;;9.73;;
67272;SDS011;54190;49.770;9.250;2024-02-21T14:16:28;16.77;;;6.43;;
67272;SDS011;54190;49.770;9.250;2024-02-21T14:18:54;28.07;;;12.23;;
67272;SDS011;54190;49.770;9.250;2024-02-21T14:21:20;18.70;;;9.27;;
67272;SDS011;54190;49.770;9.250;2024-02-21T14:23:45;8.27;;;3.37;;
67272;SDS011;54190;49.770;9.250;2024-02-21T14:26:11;15.67;;;6.87;;
67272;SDS011;54190;49.770;9.250;2024-02-21T14:28:40;10.90;;;5.00;;
67272;SDS011;54190;49.770;9.250;2024-02-21T14:31:06;7.47;;;4.30;;
67272;SDS011;54190;49.770;9.250;2024-02-21T14:33:37;10.80;;;4.40;;
67272;SDS011;54190;49.770;9.250;2024-02-21T14:36:03;7.20;;;4.07;;
67272;SDS011;54190;49.770;9.250;2024-02-21T14:38:29;9.40;;;5.60;;
67272;SDS011;54190;49.770;9.250;2024-02-21T14:40:55;4.87;;;2.30;;
67272;SDS011;54190;49.770;9.250;2024-02-21T14:43:20;5.83;;;2.03;;
67272;SDS011;54190;49.770;9.250;2024-02-21T14:45:47;4.40;;;2.00;;
67272;SDS011;54190;49.770;9.250;2024-02-21T14:48:13;2.97;;;1.80;;
67272;SDS011;54190;49.770;9.250;2024-02-21T14:50:39;5.13;;;1.80;;
67272;SDS011;54190;49.770;9.250;2024-02-21T14:53:04;3.40;;;1.80;;
67272;SDS011;54190;49.770;9.250;2024-02-21T14:55:30;3.20;;;1.80;;
67272;SDS011;54190;49.770;9.250;2024-02-21T14:57:56;4.00;;;2.37;;
67272;SDS011;54190;49.770;9.250;2024-02-21T15:00:21;8.43;;;2.60;;
67272;SDS011;54190;49.770;9.250;2024-02-21T15:02:54;4.77;;;2.47;;